Accueil
METAR-TAF:

METAR-TAF

Aéroports :

Logroño, Espagne

latitude: 42-27N, longitude: 002-20W, altitude: 353 m

Observation

Le bulletin a été fait il y a 35 minutes, à 18:00 UTC
Vent 7 kt de ouest/nord-ouest, variant entre ouest et nord/nord-ouest
Température 6°C
Humidité 75%
Pression 1026 hPa
Visibilité 10 km ou plus
Quelques nuages à une hauteur de 2000 ft
Nuages fragmentés à une hauteur de 3500 ft

METAR: LELO 161800Z 30007KT 270V340 9999 FEW020 BKN035 06/02 Q1026

Heure: 19:35 (18:35 UTC)

Prévision

Le bulletin a été fait il y a 1 heure et 35 minutes, à 17:00 UTC
Prévision valable du 16 à 18 UTC au 17 à 03 UTC
Vent 10 kt de ouest
Visibilité 10 km ou plus
Quelques nuages à une hauteur de 2000 ft
Nuages fragmentés à une hauteur de 3500 ft

TAF: LELO 161700Z 1618/1703 28010KT 9999 FEW020 BKN035

Observations et prévisions météorologiques de plus de 4000 aéroports (messages METAR et TAF).

Les stations disponibles sont représentées par des disques jaunes et rouges sur la carte.

Passer la souris dessus pour voir le nom de la station.

Cliquer dessus pour voir les observations et prévisions météorologiques.

Pour changer de carte: cliquez sur les boutons verts avec une croix noire pour zoomer, sur le bouton vert avec un tiret pour effectuer un zoom arrière, ou sur les flèches vertes pour les cartes adjacentes.


METAR-TAF: